Time;durP1;ratioP1;P1;durP2;ratioP2;P2;SDS_P1;SDS_P2;PMS_P1;PMS_P2;Temp;Humidity;BMP_temperature;BMP_pressure;BME280_temperature;BME280_humidity;BME280_pressure;Samples;Min_cycle;Max_cycle;Signal;HPM_P1;HPM_P2
2023/09/05 00:00:03;;;;;;;4.90;2.28;;;;;;;;;;2090339;28;20036;-54
2023/09/05 00:01:07;;;;;;;4.20;2.33;;;;;;;;;;2090347;28;20037;-54
2023/09/05 00:02:07;;;;;;;3.45;2.25;;;;;;;;;;2090521;28;20064;-54
2023/09/05 00:03:08;;;;;;;4.68;2.17;;;;;;;;;;2090851;28;20053;-54
2023/09/05 00:04:10;;;;;;;4.63;2.40;;;;;;;;;;2091066;28;20029;-54
2023/09/05 00:05:11;;;;;;;5.07;2.40;;;;;;;;;;2090518;28;20037;-54
2023/09/05 00:06:12;;;;;;;4.47;2.17;;;;;;;;;;2090782;28;20037;-55
2023/09/05 00:07:13;;;;;;;5.10;2.60;;;;;;;;;;2090790;28;20051;-54
2023/09/05 00:08:14;;;;;;;4.32;2.55;;;;;;;;;;2090843;28;20052;-55
2023/09/05 00:09:17;;;;;;;4.75;2.30;;;;;;;;;;2090620;28;20048;-55
2023/09/05 00:10:18;;;;;;;3.95;2.63;;;;;;;;;;2090708;28;20056;-55
2023/09/05 00:11:19;;;;;;;3.67;2.40;;;;;;;;;;2090855;28;20025;-55
2023/09/05 00:12:20;;;;;;;4.65;2.50;;;;;;;;;;2090842;28;20397;-54
2023/09/05 00:13:20;;;;;;;5.03;2.20;;;;;;;;;;2090524;28;20041;-54
2023/09/05 00:14:21;;;;;;;3.10;2.20;;;;;;;;;;2091199;28;20041;-54
2023/09/05 00:15:22;;;;;;;4.05;2.30;;;;;;;;;;2090366;28;20557;-55
2023/09/05 00:16:23;;;;;;;5.20;2.50;;;;;;;;;;2090694;28;20045;-54
2023/09/05 00:17:23;;;;;;;4.53;2.33;;;;;;;;;;2090426;28;20029;-54
2023/09/05 00:18:24;;;;;;;5.60;2.25;;;;;;;;;;2091010;28;20032;-54
2023/09/05 00:19:25;;;;;;;3.90;1.98;;;;;;;;;;2091033;28;20036;-55
2023/09/05 00:20:26;;;;;;;4.45;2.47;;;;;;;;;;2090660;28;20036;-55
2023/09/05 00:21:27;;;;;;;5.50;2.63;;;;;;;;;;2090570;28;20188;-54
2023/09/05 00:22:27;;;;;;;5.22;2.63;;;;;;;;;;2091100;28;20512;-55
2023/09/05 00:23:28;;;;;;;6.22;2.20;;;;;;;;;;2090720;28;20045;-55
2023/09/05 00:24:32;;;;;;;4.13;2.63;;;;;;;;;;2091151;28;20037;-54
2023/09/05 00:25:34;;;;;;;4.38;2.50;;;;;;;;;;2090528;28;20049;-54
2023/09/05 00:26:34;;;;;;;3.92;1.90;;;;;;;;;;2090672;28;20049;-54
2023/09/05 00:27:39;;;;;;;4.78;2.53;;;;;;;;;;2090715;28;20028;-54
2023/09/05 00:28:42;;;;;;;4.85;2.10;;;;;;;;;;2090269;28;20037;-54
2023/09/05 00:29:43;;;;;;;3.75;2.45;;;;;;;;;;2090136;28;20041;-53
2023/09/05 00:30:43;;;;;;;5.13;3.00;;;;;;;;;;2090003;28;20080;-53
2023/09/05 00:31:46;;;;;;;4.15;2.42;;;;;;;;;;2090088;28;20045;-54
2023/09/05 00:32:47;;;;;;;6.43;2.60;;;;;;;;;;2090242;28;20063;-54
2023/09/05 00:33:48;;;;;;;3.95;2.28;;;;;;;;;;2090317;28;20032;-54
2023/09/05 00:34:49;;;;;;;3.50;2.17;;;;;;;;;;2090685;28;20044;-55
2023/09/05 00:35:53;;;;;;;4.07;2.30;;;;;;;;;;2089776;28;20037;-54
2023/09/05 00:36:54;;;;;;;3.30;2.28;;;;;;;;;;2090189;28;20033;-53
2023/09/05 00:37:54;;;;;;;4.45;2.50;;;;;;;;;;2090518;28;20040;-55
2023/09/05 00:38:55;;;;;;;5.63;2.30;;;;;;;;;;2090396;28;20499;-55
2023/09/05 00:39:56;;;;;;;4.45;2.58;;;;;;;;;;2089974;28;20040;-55
2023/09/05 00:40:56;;;;;;;5.63;2.53;;;;;;;;;;2089784;28;20041;-55
2023/09/05 00:41:57;;;;;;;3.92;2.20;;;;;;;;;;2089980;28;20128;-55
2023/09/05 00:42:58;;;;;;;4.00;2.55;;;;;;;;;;2090082;28;20036;-55
2023/09/05 00:43:59;;;;;;;4.03;2.60;;;;;;;;;;2090306;28;20075;-55
2023/09/05 00:45:00;;;;;;;4.18;2.22;;;;;;;;;;2089980;28;20044;-54
2023/09/05 00:46:01;;;;;;;6.65;2.72;;;;;;;;;;2089709;28;20102;-53
2023/09/05 00:47:01;;;;;;;4.47;2.38;;;;;;;;;;2081712;28;20037;-54
2023/09/05 00:48:03;;;;;;;7.18;2.58;;;;;;;;;;2081691;28;20048;-54
2023/09/05 00:49:03;;;;;;;4.57;2.45;;;;;;;;;;2081705;28;20107;-54
2023/09/05 00:50:05;;;;;;;5.38;2.30;;;;;;;;;;2089931;28;20084;-54
2023/09/05 00:51:08;;;;;;;4.88;2.50;;;;;;;;;;2090292;28;20500;-53
2023/09/05 00:52:09;;;;;;;4.28;2.75;;;;;;;;;;2089647;28;20049;-54
2023/09/05 00:53:10;;;;;;;4.85;2.40;;;;;;;;;;2081862;28;20034;-53
2023/09/05 00:54:11;;;;;;;4.18;2.30;;;;;;;;;;2090262;28;20124;-53
2023/09/05 00:55:12;;;;;;;4.78;2.55;;;;;;;;;;2089233;28;20156;-53
2023/09/05 00:56:13;;;;;;;4.63;2.83;;;;;;;;;;2089631;28;20440;-55
2023/09/05 00:57:14;;;;;;;6.35;2.67;;;;;;;;;;2089867;28;20477;-55
2023/09/05 00:58:15;;;;;;;3.53;2.28;;;;;;;;;;2045252;28;1046769;-55
2023/09/05 00:59:16;;;;;;;4.00;2.25;;;;;;;;;;2082531;28;20049;-55
2023/09/05 01:00:17;;;;;;;5.65;3.17;;;;;;;;;;2090476;28;20073;-55
2023/09/05 01:01:18;;;;;;;3.72;2.40;;;;;;;;;;2081443;28;20053;-54
2023/09/05 01:02:19;;;;;;;5.72;3.03;;;;;;;;;;2090350;28;20527;-55
2023/09/05 01:03:20;;;;;;;4.63;2.50;;;;;;;;;;2091588;28;20067;-54
2023/09/05 01:04:21;;;;;;;5.47;2.80;;;;;;;;;;2090905;28;20037;-54
2023/09/05 01:05:22;;;;;;;4.22;2.60;;;;;;;;;;2090197;28;20426;-55
2023/09/05 01:06:46;;;;;;;4.32;2.78;;;;;;;;;;2082367;28;20052;-54
2023/09/05 01:08:02;;;;;;;5.70;2.63;;;;;;;;;;2090514;28;20037;-55
2023/09/05 01:09:16;;;;;;;4.13;2.40;;;;;;;;;;2090253;28;20428;-54
2023/09/05 01:10:43;;;;;;;4.43;2.70;;;;;;;;;;2083741;28;20033;-54
2023/09/05 01:11:44;;;;;;;5.80;2.83;;;;;;;;;;2083005;28;20115;-54
2023/09/05 01:12:44;;;;;;;5.18;2.50;;;;;;;;;;2090654;28;20045;-54
2023/09/05 01:13:45;;;;;;;6.05;2.70;;;;;;;;;;2090212;28;20388;-53
2023/09/05 01:14:46;;;;;;;5.18;2.53;;;;;;;;;;2089930;28;20044;-53
2023/09/05 01:15:47;;;;;;;4.22;2.55;;;;;;;;;;2090765;28;20124;-53
2023/09/05 01:16:47;;;;;;;4.50;2.30;;;;;;;;;;2090512;28;20041;-54
2023/09/05 01:17:50;;;;;;;5.00;2.60;;;;;;;;;;2090515;28;20029;-54
2023/09/05 01:18:52;;;;;;;4.78;2.65;;;;;;;;;;2074798;28;20038;-54
2023/09/05 01:19:55;;;;;;;5.45;3.20;;;;;;;;;;2074521;28;20049;-54
2023/09/05 01:21:14;;;;;;;5.43;2.40;;;;;;;;;;2089935;28;20532;-54
2023/09/05 01:22:35;;;;;;;6.18;2.65;;;;;;;;;;2090891;28;20388;-54
2023/09/05 01:23:42;;;;;;;6.38;3.10;;;;;;;;;;2082479;28;20032;-53
2023/09/05 01:24:47;;;;;;;4.30;2.53;;;;;;;;;;2074905;28;20054;-54
2023/09/05 01:25:47;;;;;;;5.72;3.05;;;;;;;;;;2082383;28;20402;-54
2023/09/05 01:26:49;;;;;;;4.93;2.30;;;;;;;;;;2090112;28;20033;-54
2023/09/05 01:27:50;;;;;;;3.85;2.40;;;;;;;;;;2082111;28;20030;-53
2023/09/05 01:28:52;;;;;;;6.43;2.60;;;;;;;;;;2089308;28;20116;-54
2023/09/05 01:29:52;;;;;;;4.85;2.75;;;;;;;;;;2090814;28;20041;-54
2023/09/05 01:30:53;;;;;;;5.00;2.75;;;;;;;;;;2089745;28;20049;-53
2023/09/05 01:31:54;;;;;;;3.85;2.38;;;;;;;;;;2090086;28;20029;-55
2023/09/05 01:32:55;;;;;;;4.80;3.20;;;;;;;;;;2090656;28;20029;-55
2023/09/05 01:33:55;;;;;;;6.38;3.00;;;;;;;;;;2089755;28;20037;-54
2023/09/05 01:34:56;;;;;;;4.53;2.63;;;;;;;;;;2090158;28;20025;-54
2023/09/05 01:35:57;;;;;;;4.68;2.35;;;;;;;;;;2090391;28;20174;-54
2023/09/05 01:36:57;;;;;;;5.32;3.03;;;;;;;;;;2090318;28;20033;-54
2023/09/05 01:37:58;;;;;;;4.80;2.72;;;;;;;;;;2081726;28;20565;-54
2023/09/05 01:38:59;;;;;;;5.47;2.90;;;;;;;;;;2089758;28;20040;-56
2023/09/05 01:40:00;;;;;;;7.38;2.92;;;;;;;;;;2090000;28;20029;-55
2023/09/05 01:41:00;;;;;;;4.57;2.72;;;;;;;;;;2081722;28;20041;-55
2023/09/05 01:42:01;;;;;;;4.35;2.67;;;;;;;;;;2090199;28;20079;-53
2023/09/05 01:43:02;;;;;;;4.25;2.28;;;;;;;;;;2089724;28;20072;-53
2023/09/05 01:44:03;;;;;;;3.63;2.58;;;;;;;;;;2090149;28;20056;-54
2023/09/05 01:45:04;;;;;;;4.80;3.10;;;;;;;;;;2089947;28;20052;-54
2023/09/05 01:46:05;;;;;;;5.68;3.10;;;;;;;;;;2089978;28;20040;-54
2023/09/05 01:47:06;;;;;;;6.28;2.90;;;;;;;;;;2090947;28;20041;-54
2023/09/05 01:48:08;;;;;;;5.82;3.05;;;;;;;;;;2090589;28;20064;-53
2023/09/05 01:49:08;;;;;;;4.95;2.67;;;;;;;;;;2089428;28;20045;-54
2023/09/05 01:50:09;;;;;;;4.25;2.75;;;;;;;;;;2090116;28;20044;-54
2023/09/05 01:51:10;;;;;;;4.00;2.58;;;;;;;;;;2090009;28;20049;-53
2023/09/05 01:52:11;;;;;;;5.13;2.83;;;;;;;;;;2089861;28;20041;-54
2023/09/05 01:53:11;;;;;;;5.25;2.97;;;;;;;;;;2090417;28;20024;-53
2023/09/05 01:54:12;;;;;;;4.13;2.45;;;;;;;;;;2081505;28;20222;-54
2023/09/05 01:55:13;;;;;;;4.35;2.50;;;;;;;;;;2082093;28;20053;-54
2023/09/05 01:56:13;;;;;;;5.07;2.50;;;;;;;;;;2089806;28;20473;-53
2023/09/05 01:57:14;;;;;;;4.85;2.70;;;;;;;;;;2081663;28;20417;-54
2023/09/05 01:58:15;;;;;;;5.38;2.90;;;;;;;;;;2080849;28;20556;-53
2023/09/05 01:59:19;;;;;;;3.90;2.40;;;;;;;;;;2081895;28;20037;-55
2023/09/05 02:00:19;;;;;;;5.45;3.08;;;;;;;;;;2089948;28;20513;-53
2023/09/05 02:01:20;;;;;;;4.90;3.13;;;;;;;;;;2089889;28;20045;-55
2023/09/05 02:02:21;;;;;;;5.60;2.95;;;;;;;;;;2090746;28;20037;-55
2023/09/05 02:03:21;;;;;;;5.68;2.85;;;;;;;;;;2090444;28;20052;-55
2023/09/05 02:04:22;;;;;;;5.63;2.53;;;;;;;;;;2091077;28;20053;-55
2023/09/05 02:05:23;;;;;;;4.38;2.88;;;;;;;;;;2090414;28;20128;-55
2023/09/05 02:06:24;;;;;;;5.00;2.53;;;;;;;;;;2089626;28;20059;-55
2023/09/05 02:07:25;;;;;;;7.28;2.67;;;;;;;;;;2089763;28;20396;-55
2023/09/05 02:08:26;;;;;;;3.50;2.50;;;;;;;;;;2090405;28;20044;-55
2023/09/05 02:09:27;;;;;;;5.57;2.80;;;;;;;;;;2088998;28;20167;-56
2023/09/05 02:10:29;;;;;;;7.00;2.40;;;;;;;;;;2089546;28;20049;-55
2023/09/05 02:11:30;;;;;;;4.38;2.55;;;;;;;;;;2089769;28;20045;-55
2023/09/05 02:12:31;;;;;;;4.13;2.50;;;;;;;;;;2089943;28;20409;-55
2023/09/05 02:13:32;;;;;;;3.80;2.60;;;;;;;;;;2090509;28;20033;-55
2023/09/05 02:14:33;;;;;;;8.65;3.20;;;;;;;;;;2090506;28;20385;-55
2023/09/05 02:15:34;;;;;;;4.55;2.72;;;;;;;;;;2089563;28;20052;-56
2023/09/05 02:16:35;;;;;;;4.13;2.55;;;;;;;;;;2081836;28;20097;-55
2023/09/05 02:17:36;;;;;;;4.00;2.40;;;;;;;;;;2081481;28;20048;-55
2023/09/05 02:18:37;;;;;;;4.55;2.40;;;;;;;;;;2081396;28;20030;-55
2023/09/05 02:19:38;;;;;;;4.15;2.53;;;;;;;;;;2089768;28;20048;-55
2023/09/05 02:20:39;;;;;;;6.15;2.80;;;;;;;;;;2090009;28;20036;-55
2023/09/05 02:21:40;;;;;;;6.05;3.30;;;;;;;;;;2089734;28;20536;-55
2023/09/05 02:22:43;;;;;;;3.95;2.40;;;;;;;;;;2097422;28;20048;-55
2023/09/05 02:23:45;;;;;;;4.40;2.90;;;;;;;;;;2090720;28;20041;-54
2023/09/05 02:24:46;;;;;;;4.45;2.65;;;;;;;;;;2089090;28;20556;-55
2023/09/05 02:25:54;;;;;;;4.47;2.97;;;;;;;;;;2089337;28;20504;-54
2023/09/05 02:26:56;;;;;;;4.47;2.42;;;;;;;;;;2090489;28;20036;-54
2023/09/05 02:27:56;;;;;;;5.53;3.30;;;;;;;;;;2090484;28;20036;-55
2023/09/05 02:28:58;;;;;;;3.95;2.80;;;;;;;;;;2090276;28;20086;-55
2023/09/05 02:30:01;;;;;;;5.95;3.10;;;;;;;;;;2090250;28;20492;-55
2023/09/05 02:31:06;;;;;;;5.88;2.78;;;;;;;;;;2090252;28;20044;-55
2023/09/05 02:32:06;;;;;;;4.18;3.17;;;;;;;;;;2090282;28;20111;-55
2023/09/05 02:33:08;;;;;;;4.60;3.00;;;;;;;;;;2090241;28;20103;-55
2023/09/05 02:34:09;;;;;;;5.07;3.38;;;;;;;;;;2090205;28;20055;-55
2023/09/05 02:35:10;;;;;;;5.80;2.75;;;;;;;;;;2088566;28;20091;-54
2023/09/05 02:36:17;;;;;;;4.05;2.67;;;;;;;;;;2089409;28;20071;-54
2023/09/05 02:37:18;;;;;;;5.07;2.63;;;;;;;;;;2090262;28;20040;-55
2023/09/05 02:38:18;;;;;;;6.88;2.67;;;;;;;;;;2090361;28;20627;-54
2023/09/05 02:39:20;;;;;;;7.00;3.08;;;;;;;;;;2090281;28;20442;-54
2023/09/05 02:40:21;;;;;;;5.18;3.10;;;;;;;;;;2089842;28;20045;-54
2023/09/05 02:41:21;;;;;;;4.30;2.53;;;;;;;;;;2089923;28;20037;-55
2023/09/05 02:42:22;;;;;;;4.85;2.65;;;;;;;;;;2090234;28;20044;-55
2023/09/05 02:43:23;;;;;;;4.38;3.00;;;;;;;;;;2090165;28;20029;-55
2023/09/05 02:44:24;;;;;;;8.40;2.92;;;;;;;;;;2090235;28;20048;-55
2023/09/05 02:45:24;;;;;;;4.72;2.85;;;;;;;;;;2090253;28;20546;-55
2023/09/05 02:46:25;;;;;;;4.68;2.80;;;;;;;;;;2090014;28;20048;-55
2023/09/05 02:47:26;;;;;;;4.55;2.78;;;;;;;;;;2089987;28;20458;-54
2023/09/05 02:48:27;;;;;;;5.35;3.03;;;;;;;;;;2089670;28;20056;-54
2023/09/05 02:49:27;;;;;;;4.35;3.08;;;;;;;;;;2090139;28;20485;-55
2023/09/05 02:50:28;;;;;;;6.22;3.17;;;;;;;;;;2090176;28;20041;-56
2023/09/05 02:51:29;;;;;;;4.60;2.90;;;;;;;;;;2090204;28;20106;-55
2023/09/05 02:52:31;;;;;;;4.85;2.90;;;;;;;;;;2089923;28;20038;-54
2023/09/05 02:53:32;;;;;;;4.32;2.70;;;;;;;;;;2089722;28;20511;-54
2023/09/05 02:54:33;;;;;;;4.93;3.00;;;;;;;;;;2089567;28;20044;-54
2023/09/05 02:55:34;;;;;;;5.63;3.30;;;;;;;;;;2089525;28;20044;-55
2023/09/05 02:56:35;;;;;;;5.15;2.88;;;;;;;;;;2090084;28;20041;-55
2023/09/05 02:57:35;;;;;;;6.38;3.05;;;;;;;;;;2090428;28;20067;-54
2023/09/05 02:58:36;;;;;;;5.13;3.10;;;;;;;;;;2089658;28;20492;-55
2023/09/05 02:59:37;;;;;;;4.45;2.90;;;;;;;;;;2089245;28;20037;-55
2023/09/05 03:00:37;;;;;;;5.07;3.10;;;;;;;;;;2081398;28;20041;-54
2023/09/05 03:01:38;;;;;;;5.70;3.30;;;;;;;;;;2088995;28;20045;-54
2023/09/05 03:02:43;;;;;;;6.07;3.50;;;;;;;;;;2090664;28;20048;-55
2023/09/05 03:03:44;;;;;;;5.25;3.20;;;;;;;;;;2089837;28;20048;-53
2023/09/05 03:04:44;;;;;;;6.65;3.28;;;;;;;;;;2090123;28;20052;-53
2023/09/05 03:05:45;;;;;;;6.03;2.88;;;;;;;;;;2090084;28;20408;-54
2023/09/05 03:06:46;;;;;;;6.70;3.10;;;;;;;;;;2089264;28;20048;-55
2023/09/05 03:07:48;;;;;;;4.55;3.25;;;;;;;;;;2089451;28;20033;-55
2023/09/05 03:08:49;;;;;;;4.10;2.63;;;;;;;;;;2081216;28;20037;-55
2023/09/05 03:09:50;;;;;;;4.20;2.90;;;;;;;;;;2089515;28;20037;-55
2023/09/05 03:10:51;;;;;;;6.65;3.25;;;;;;;;;;2089252;28;20041;-55
2023/09/05 03:11:52;;;;;;;5.38;3.10;;;;;;;;;;2089343;28;20037;-54
2023/09/05 03:12:53;;;;;;;4.35;2.92;;;;;;;;;;2089434;28;20075;-55
2023/09/05 03:13:53;;;;;;;5.80;3.05;;;;;;;;;;2088939;28;20112;-55
2023/09/05 03:14:54;;;;;;;5.93;2.90;;;;;;;;;;2089477;28;20124;-54
2023/09/05 03:15:55;;;;;;;6.40;3.55;;;;;;;;;;2089604;28;20041;-55
2023/09/05 03:16:57;;;;;;;5.75;3.30;;;;;;;;;;2089411;28;20044;-53
2023/09/05 03:17:58;;;;;;;4.53;2.90;;;;;;;;;;2088863;28;20124;-53
2023/09/05 03:18:59;;;;;;;4.88;3.10;;;;;;;;;;2089500;28;20037;-55
2023/09/05 03:20:00;;;;;;;5.70;3.35;;;;;;;;;;2089415;28;20040;-54
2023/09/05 03:21:01;;;;;;;5.18;3.33;;;;;;;;;;2089325;28;20095;-54
2023/09/05 03:22:02;;;;;;;6.95;3.70;;;;;;;;;;2090099;28;20045;-55
2023/09/05 03:23:03;;;;;;;6.13;3.60;;;;;;;;;;2089419;28;20420;-54
2023/09/05 03:24:04;;;;;;;6.40;3.47;;;;;;;;;;2089419;28;20037;-53
2023/09/05 03:25:05;;;;;;;6.43;3.60;;;;;;;;;;2090087;28;20053;-55
2023/09/05 03:26:06;;;;;;;4.30;2.92;;;;;;;;;;2090028;28;20116;-55
2023/09/05 03:27:07;;;;;;;5.30;3.20;;;;;;;;;;2089445;28;20037;-55
2023/09/05 03:28:12;;;;;;;4.95;3.25;;;;;;;;;;2080921;28;20041;-53
2023/09/05 03:29:13;;;;;;;5.85;3.35;;;;;;;;;;2081819;28;20049;-53
2023/09/05 03:30:14;;;;;;;4.75;3.13;;;;;;;;;;2089146;28;20052;-53
2023/09/05 03:31:15;;;;;;;5.93;3.47;;;;;;;;;;2090034;28;20044;-53
2023/09/05 03:32:15;;;;;;;5.07;3.25;;;;;;;;;;2089263;28;20033;-54
2023/09/05 03:33:16;;;;;;;6.85;3.80;;;;;;;;;;2081328;28;20417;-55
2023/09/05 03:34:18;;;;;;;4.75;3.40;;;;;;;;;;2088852;28;20041;-55
2023/09/05 03:35:18;;;;;;;7.18;3.90;;;;;;;;;;2081313;28;20042;-55
2023/09/05 03:36:19;;;;;;;5.78;3.42;;;;;;;;;;2081166;28;20144;-55
2023/09/05 03:37:20;;;;;;;5.63;3.20;;;;;;;;;;2089774;28;20477;-55
2023/09/05 03:38:20;;;;;;;6.47;3.80;;;;;;;;;;2089959;28;20104;-55
2023/09/05 03:39:21;;;;;;;5.35;3.17;;;;;;;;;;2088545;28;20048;-55
2023/09/05 03:40:22;;;;;;;7.43;3.70;;;;;;;;;;2089385;28;20029;-53
2023/09/05 03:41:23;;;;;;;5.55;3.28;;;;;;;;;;2089517;28;20041;-53
2023/09/05 03:42:24;;;;;;;5.75;3.38;;;;;;;;;;2081093;28;20041;-56
2023/09/05 03:43:26;;;;;;;6.43;3.83;;;;;;;;;;2089476;28;20053;-54
2023/09/05 03:44:27;;;;;;;6.50;3.10;;;;;;;;;;2090066;28;20080;-55
2023/09/05 03:45:27;;;;;;;5.07;3.53;;;;;;;;;;2088433;28;20041;-56
2023/09/05 03:46:28;;;;;;;5.80;3.30;;;;;;;;;;2089508;28;20033;-55
2023/09/05 03:47:29;;;;;;;6.97;3.28;;;;;;;;;;2089459;28;20406;-55
2023/09/05 03:48:29;;;;;;;5.57;3.58;;;;;;;;;;2089710;28;20521;-55
2023/09/05 03:49:30;;;;;;;6.97;3.58;;;;;;;;;;2089352;28;20033;-55
2023/09/05 03:50:31;;;;;;;5.30;3.70;;;;;;;;;;2089177;28;20397;-55
2023/09/05 03:51:32;;;;;;;8.02;3.55;;;;;;;;;;2089150;28;20143;-55
2023/09/05 03:52:32;;;;;;;6.07;3.17;;;;;;;;;;2090545;28;20053;-55
2023/09/05 03:53:33;;;;;;;7.13;3.47;;;;;;;;;;2091492;28;20413;-54
2023/09/05 03:54:34;;;;;;;4.80;3.50;;;;;;;;;;2091174;28;20072;-54
2023/09/05 03:55:34;;;;;;;5.80;3.70;;;;;;;;;;2082602;28;20048;-54
2023/09/05 03:56:35;;;;;;;5.90;3.40;;;;;;;;;;2082318;28;20049;-54
2023/09/05 03:57:36;;;;;;;5.05;3.10;;;;;;;;;;2090826;28;20501;-54
2023/09/05 03:58:37;;;;;;;6.75;3.92;;;;;;;;;;2089890;28;20037;-54
2023/09/05 03:59:38;;;;;;;5.35;3.45;;;;;;;;;;2090494;28;20071;-54
2023/09/05 04:00:39;;;;;;;5.10;3.45;;;;;;;;;;2099066;28;20047;-54
2023/09/05 04:01:39;;;;;;;4.88;3.88;;;;;;;;;;2090316;28;20488;-55
2023/09/05 04:02:40;;;;;;;7.35;3.75;;;;;;;;;;2082373;28;20521;-55
2023/09/05 04:03:41;;;;;;;6.03;4.25;;;;;;;;;;2091142;28;20040;-55
2023/09/05 04:04:42;;;;;;;4.82;3.65;;;;;;;;;;2091450;28;20068;-55
2023/09/05 04:05:43;;;;;;;5.22;3.60;;;;;;;;;;2091200;28;20049;-55
2023/09/05 04:06:43;;;;;;;6.45;3.78;;;;;;;;;;2090596;28;20045;-55
2023/09/05 04:07:47;;;;;;;6.13;3.80;;;;;;;;;;2090768;28;20045;-55
2023/09/05 04:08:47;;;;;;;5.72;3.55;;;;;;;;;;2090777;28;20425;-55
2023/09/05 04:09:48;;;;;;;6.50;4.25;;;;;;;;;;2082445;28;20036;-55
2023/09/05 04:10:49;;;;;;;7.88;3.50;;;;;;;;;;2090639;28;20029;-55
2023/09/05 04:11:50;;;;;;;6.28;3.35;;;;;;;;;;2091177;28;20041;-55
2023/09/05 04:12:51;;;;;;;6.70;4.07;;;;;;;;;;2090759;28;20099;-55
2023/09/05 04:13:51;;;;;;;7.47;3.85;;;;;;;;;;2090644;28;20036;-55
2023/09/05 04:14:52;;;;;;;6.65;3.80;;;;;;;;;;2090649;28;20040;-55
2023/09/05 04:15:53;;;;;;;7.50;3.45;;;;;;;;;;2091891;28;20044;-55
2023/09/05 04:16:54;;;;;;;5.97;3.53;;;;;;;;;;2090981;28;20033;-55
2023/09/05 04:17:54;;;;;;;6.80;3.67;;;;;;;;;;2090941;28;20033;-55
2023/09/05 04:18:55;;;;;;;8.25;4.10;;;;;;;;;;2090567;28;20052;-55
2023/09/05 04:19:56;;;;;;;5.60;4.05;;;;;;;;;;2091406;28;20029;-55
2023/09/05 04:20:57;;;;;;;6.15;3.97;;;;;;;;;;2090802;28;20385;-56
2023/09/05 04:21:58;;;;;;;5.55;3.70;;;;;;;;;;2082604;28;20029;-56
2023/09/05 04:22:59;;;;;;;8.70;4.18;;;;;;;;;;2090905;28;20044;-55
2023/09/05 04:24:00;;;;;;;6.10;3.75;;;;;;;;;;2091775;28;20040;-55
2023/09/05 04:25:00;;;;;;;6.72;3.90;;;;;;;;;;2090923;28;20041;-56
2023/09/05 04:26:01;;;;;;;5.03;3.50;;;;;;;;;;2091194;28;20026;-55
2023/09/05 04:27:03;;;;;;;7.32;4.50;;;;;;;;;;2091200;28;20029;-56
2023/09/05 04:28:04;;;;;;;7.88;4.55;;;;;;;;;;2091206;28;20033;-56
2023/09/05 04:29:05;;;;;;;7.38;4.80;;;;;;;;;;2091412;28;20029;-55
2023/09/05 04:30:06;;;;;;;7.80;4.15;;;;;;;;;;2090870;28;20045;-55
2023/09/05 04:31:07;;;;;;;6.95;4.53;;;;;;;;;;2091384;28;20385;-55
2023/09/05 04:32:08;;;;;;;7.88;4.25;;;;;;;;;;2090448;28;20103;-55
2023/09/05 04:33:10;;;;;;;5.15;3.83;;;;;;;;;;2082315;28;20092;-55
2023/09/05 04:34:11;;;;;;;6.45;4.50;;;;;;;;;;2082303;28;20045;-55
2023/09/05 04:35:12;;;;;;;6.03;3.90;;;;;;;;;;2090238;28;20044;-55
2023/09/05 04:36:12;;;;;;;6.05;4.00;;;;;;;;;;2090917;28;20037;-55
2023/09/05 04:37:17;;;;;;;9.25;4.18;;;;;;;;;;2090287;28;20048;-55
2023/09/05 04:38:18;;;;;;;6.03;4.50;;;;;;;;;;2090611;28;20037;-55
2023/09/05 04:39:18;;;;;;;6.95;4.07;;;;;;;;;;2091203;28;20543;-55
2023/09/05 04:40:19;;;;;;;8.02;4.07;;;;;;;;;;2091109;28;20373;-55
2023/09/05 04:41:20;;;;;;;6.50;4.47;;;;;;;;;;2090644;28;20116;-55
2023/09/05 04:42:21;;;;;;;6.88;3.80;;;;;;;;;;2082312;28;20041;-54
2023/09/05 04:43:22;;;;;;;5.40;3.90;;;;;;;;;;2090497;28;20041;-55
2023/09/05 04:44:22;;;;;;;5.50;3.55;;;;;;;;;;2091254;28;20114;-55
2023/09/05 04:45:24;;;;;;;7.43;3.90;;;;;;;;;;2090750;28;20049;-55
2023/09/05 04:46:24;;;;;;;6.93;4.00;;;;;;;;;;2091037;28;20045;-55
2023/09/05 04:47:26;;;;;;;5.68;3.60;;;;;;;;;;2090755;28;20416;-55
2023/09/05 04:48:26;;;;;;;9.43;4.00;;;;;;;;;;2090731;28;20047;-55
2023/09/05 04:49:27;;;;;;;6.82;4.15;;;;;;;;;;2091519;28;20051;-56
2023/09/05 04:50:28;;;;;;;8.45;4.10;;;;;;;;;;2091215;28;20029;-55
2023/09/05 04:51:29;;;;;;;7.25;3.75;;;;;;;;;;2090877;28;20405;-55
2023/09/05 04:52:29;;;;;;;6.05;3.88;;;;;;;;;;2091044;28;20045;-54
2023/09/05 04:53:30;;;;;;;6.57;4.20;;;;;;;;;;2090783;28;20095;-55
2023/09/05 04:54:31;;;;;;;8.52;3.85;;;;;;;;;;2090978;28;20033;-55
2023/09/05 04:55:32;;;;;;;6.65;3.92;;;;;;;;;;2090747;28;20033;-55
2023/09/05 04:56:33;;;;;;;5.45;3.60;;;;;;;;;;2090744;28;20056;-55
2023/09/05 04:57:33;;;;;;;5.72;3.83;;;;;;;;;;2090948;28;20484;-55
2023/09/05 04:58:34;;;;;;;6.32;4.07;;;;;;;;;;2090816;28;20041;-55
2023/09/05 04:59:35;;;;;;;5.32;3.28;;;;;;;;;;2090690;28;20044;-56
2023/09/05 05:00:36;;;;;;;6.07;3.60;;;;;;;;;;2090664;28;20083;-55
2023/09/05 05:01:36;;;;;;;5.00;3.25;;;;;;;;;;2090919;28;20036;-55
2023/09/05 05:02:37;;;;;;;5.45;3.47;;;;;;;;;;2091033;28;20476;-55
2023/09/05 05:03:38;;;;;;;7.32;3.85;;;;;;;;;;2089640;28;20032;-55
2023/09/05 05:04:38;;;;;;;5.95;3.45;;;;;;;;;;2091057;28;20029;-55
2023/09/05 05:05:39;;;;;;;5.72;3.70;;;;;;;;;;2090652;28;20079;-55
2023/09/05 05:06:40;;;;;;;5.43;3.35;;;;;;;;;;2091179;28;20025;-55
2023/09/05 05:07:41;;;;;;;6.30;4.07;;;;;;;;;;2090893;28;20378;-55
2023/09/05 05:08:41;;;;;;;4.95;3.63;;;;;;;;;;2091016;28;20036;-55
2023/09/05 05:09:42;;;;;;;4.60;3.30;;;;;;;;;;2090608;28;20393;-54
2023/09/05 05:10:43;;;;;;;5.32;2.85;;;;;;;;;;2090607;28;20041;-55
2023/09/05 05:11:43;;;;;;;6.43;3.65;;;;;;;;;;2091021;28;20036;-55
2023/09/05 05:12:44;;;;;;;5.05;3.10;;;;;;;;;;2090976;28;20039;-55
2023/09/05 05:13:45;;;;;;;5.85;3.38;;;;;;;;;;2091147;28;20412;-55
2023/09/05 05:14:46;;;;;;;7.88;3.42;;;;;;;;;;2090794;28;20025;-56
2023/09/05 05:15:47;;;;;;;5.55;3.30;;;;;;;;;;2091141;28;20032;-55
2023/09/05 05:16:49;;;;;;;4.75;3.35;;;;;;;;;;2090480;28;20040;-55
2023/09/05 05:17:49;;;;;;;5.68;3.42;;;;;;;;;;2090941;28;20037;-55
2023/09/05 05:18:50;;;;;;;5.85;3.20;;;;;;;;;;2090591;28;20037;-55
2023/09/05 05:19:51;;;;;;;6.65;3.40;;;;;;;;;;2090785;28;20040;-55
2023/09/05 05:20:51;;;;;;;4.18;2.70;;;;;;;;;;2090962;28;20044;-56
2023/09/05 05:21:52;;;;;;;5.32;2.80;;;;;;;;;;2090726;28;20049;-55
2023/09/05 05:22:53;;;;;;;5.95;3.30;;;;;;;;;;2090530;28;20381;-55
2023/09/05 05:23:55;;;;;;;3.90;2.95;;;;;;;;;;2091010;28;20040;-54
2023/09/05 05:24:55;;;;;;;4.90;3.25;;;;;;;;;;2090851;28;20032;-55
2023/09/05 05:26:00;;;;;;;5.80;3.10;;;;;;;;;;2090430;28;20049;-55
2023/09/05 05:27:00;;;;;;;4.85;2.95;;;;;;;;;;2090698;28;20052;-56
2023/09/05 05:28:01;;;;;;;5.97;2.78;;;;;;;;;;2090249;28;20048;-55
2023/09/05 05:29:02;;;;;;;5.20;3.05;;;;;;;;;;2090244;28;20103;-55
2023/09/05 05:30:03;;;;;;;4.55;2.83;;;;;;;;;;2090848;28;20393;-55
2023/09/05 05:31:06;;;;;;;6.40;3.10;;;;;;;;;;2090730;28;20037;-54
2023/09/05 05:32:06;;;;;;;4.88;3.10;;;;;;;;;;2081971;28;20045;-56
2023/09/05 05:33:07;;;;;;;9.43;4.00;;;;;;;;;;2081863;28;20037;-56
2023/09/05 05:34:08;;;;;;;5.00;3.08;;;;;;;;;;2091397;28;20516;-56
2023/09/05 05:35:09;;;;;;;5.78;3.10;;;;;;;;;;2090822;28;20075;-56
2023/09/05 05:36:09;;;;;;;4.72;3.13;;;;;;;;;;2091071;28;20040;-55
2023/09/05 05:37:10;;;;;;;5.60;3.30;;;;;;;;;;2090778;28;20371;-55
2023/09/05 05:38:11;;;;;;;6.25;3.30;;;;;;;;;;2090495;28;20032;-55
2023/09/05 05:39:11;;;;;;;4.93;3.33;;;;;;;;;;2091201;28;20040;-55
2023/09/05 05:40:13;;;;;;;4.88;3.17;;;;;;;;;;2090992;28;20037;-56
2023/09/05 05:41:14;;;;;;;5.10;3.13;;;;;;;;;;2090635;28;20056;-55
2023/09/05 05:42:15;;;;;;;5.57;3.10;;;;;;;;;;2090674;28;20036;-54
2023/09/05 05:43:15;;;;;;;6.70;3.22;;;;;;;;;;2090662;28;20073;-55
2023/09/05 05:44:16;;;;;;;4.88;2.92;;;;;;;;;;2090570;28;20049;-55
2023/09/05 05:45:17;;;;;;;7.63;3.03;;;;;;;;;;2090633;28;20029;-54
2023/09/05 05:46:18;;;;;;;4.18;3.05;;;;;;;;;;2090576;28;20516;-54
2023/09/05 05:47:18;;;;;;;4.97;3.05;;;;;;;;;;2090207;28;20045;-56
2023/09/05 05:48:19;;;;;;;5.22;3.05;;;;;;;;;;2090854;28;20033;-55
2023/09/05 05:49:20;;;;;;;5.50;3.75;;;;;;;;;;2091133;28;20048;-55
2023/09/05 05:50:20;;;;;;;6.57;2.90;;;;;;;;;;2090253;28;20405;-56
2023/09/05 05:51:21;;;;;;;4.28;2.70;;;;;;;;;;2090640;28;20044;-55
2023/09/05 05:52:22;;;;;;;5.38;3.00;;;;;;;;;;2090573;28;20056;-56
2023/09/05 05:53:24;;;;;;;7.60;3.38;;;;;;;;;;2090386;28;20404;-55
2023/09/05 05:54:25;;;;;;;5.07;3.20;;;;;;;;;;2090548;28;20481;-56
2023/09/05 05:55:25;;;;;;;5.22;3.15;;;;;;;;;;2090780;28;20044;-55
2023/09/05 05:56:26;;;;;;;8.07;3.28;;;;;;;;;;2090553;28;20420;-55
2023/09/05 05:57:27;;;;;;;4.63;2.75;;;;;;;;;;2090911;28;20036;-55
2023/09/05 05:58:28;;;;;;;5.35;3.20;;;;;;;;;;2090334;28;20033;-55
2023/09/05 05:59:29;;;;;;;6.40;3.15;;;;;;;;;;2090628;28;20029;-55
2023/09/05 06:00:29;;;;;;;5.03;3.08;;;;;;;;;;2090445;28;20100;-55
2023/09/05 06:01:32;;;;;;;9.38;3.72;;;;;;;;;;2090336;28;20090;-55
2023/09/05 06:02:33;;;;;;;5.25;3.13;;;;;;;;;;2090444;28;20044;-55
2023/09/05 06:03:37;;;;;;;5.57;3.00;;;;;;;;;;2090247;28;20037;-55
2023/09/05 06:04:37;;;;;;;4.93;2.78;;;;;;;;;;2090623;28;20025;-55
2023/09/05 06:05:38;;;;;;;4.28;2.97;;;;;;;;;;2090134;28;20041;-55
2023/09/05 06:06:40;;;;;;;5.80;3.15;;;;;;;;;;2090838;28;20037;-55
2023/09/05 06:07:41;;;;;;;5.90;2.83;;;;;;;;;;2090631;28;20025;-55